Terminal Aerodrome Forecast
Issued by NWS

Home | Current Version | Previous Version | Text Only | Print | Product List | Glossary On
Versions: 1 2 3 4 5 6 7 8 9 10 11 12 13 14 15
591
FTUS42 KTAE 290523
TAFDHN
TAF
KDHN 290523Z 2906/3006 VRB05KT P6SM FEW150
     FM291800 31008KT P6SM SKC=

USA.gov is the U.S. government's official web portal to all federal, state and local government web resources and services.